Saint Bonnet de Bellac- Haute Vienne - France
Donnes mto: vendredi, 10/08/2012
Date Horaire Temp. E. Hum. E. P.atmo. Pluie Vent Direction Direction Ensoleilleme Solaire P. de rose Temp au vent Rafales
10/08/2012 00:00 20,4 C 59 % 1021,7 hPa 0,0 mm 0,0 km/h (0 Bft) NE 45 0 min 0 W/m 12,1 C 20,4 C 0,0 km/h (0 Bft)
10/08/2012 00:10 20,1 C 59 % 1021,8 hPa 0,0 mm 0,0 km/h (0 Bft) NE 45 0 min 0 W/m 11,8 C 20,1 C 0,0 km/h (0 Bft)
10/08/2012 00:20 19,8 C 61 % 1021,8 hPa 0,0 mm 0,0 km/h (0 Bft) NE 45 0 min 0 W/m 12,1 C 19,8 C 0,0 km/h (0 Bft)
10/08/2012 00:30 19,4 C 62 % 1021,8 hPa 0,0 mm 0,0 km/h (0 Bft) E-NE 67 0 min 0 W/m 11,9 C 19,4 C 0,0 km/h (0 Bft)
10/08/2012 00:40 19,2 C 62 % 1021,8 hPa 0,0 mm 0,0 km/h (0 Bft) E-NE 67 0 min 0 W/m 11,7 C 19,2 C 0,0 km/h (0 Bft)
10/08/2012 00:50 19,1 C 63 % 1021,7 hPa 0,0 mm 0,0 km/h (0 Bft) NE 45 0 min 0 W/m 11,9 C 19,1 C 0,0 km/h (0 Bft)
10/08/2012 01:00 19,0 C 63 % 1021,6 hPa 0,0 mm 0,0 km/h (0 Bft) N-NE 22 0 min 0 W/m 11,8 C 19,0 C 0,0 km/h (0 Bft)
10/08/2012 01:10 18,8 C 64 % 1021,7 hPa 0,0 mm 0,0 km/h (0 Bft) N-NE 22 0 min 0 W/m 11,8 C 18,8 C 0,0 km/h (0 Bft)
10/08/2012 01:20 18,5 C 64 % 1021,7 hPa 0,0 mm 0,0 km/h (0 Bft) N-NE 22 0 min 0 W/m 11,6 C 18,5 C 0,0 km/h (0 Bft)
10/08/2012 01:30 18,3 C 65 % 1021,6 hPa 0,0 mm 0,0 km/h (0 Bft) N-NE 22 0 min 0 W/m 11,6 C 18,3 C 0,0 km/h (0 Bft)
10/08/2012 01:40 17,9 C 65 % 1021,5 hPa 0,0 mm 0,0 km/h (0 Bft) E-NE 67 0 min 0 W/m 11,2 C 17,9 C 0,0 km/h (0 Bft)
10/08/2012 01:50 17,8 C 67 % 1021,5 hPa 0,0 mm 1,4 km/h (1 Bft) NE 45 0 min 0 W/m 11,6 C 17,8 C 4,3 km/h (1 Bft)
10/08/2012 02:00 17,6 C 67 % 1021,4 hPa 0,0 mm 0,0 km/h (0 Bft) NE 45 0 min 0 W/m 11,4 C 17,6 C 0,0 km/h (0 Bft)
10/08/2012 02:10 17,4 C 68 % 1021,5 hPa 0,0 mm 0,0 km/h (0 Bft) NE 45 0 min 0 W/m 11,4 C 17,4 C 0,0 km/h (0 Bft)
10/08/2012 02:20 17,2 C 69 % 1021,4 hPa 0,0 mm 0,0 km/h (0 Bft) NE 45 0 min 0 W/m 11,5 C 17,2 C 0,0 km/h (0 Bft)
10/08/2012 02:30 16,9 C 70 % 1021,4 hPa 0,0 mm 0,0 km/h (0 Bft) NE 45 0 min 0 W/m 11,4 C 16,9 C 0,0 km/h (0 Bft)
10/08/2012 02:40 16,8 C 70 % 1021,4 hPa 0,0 mm 0,0 km/h (0 Bft) NE 45 0 min 0 W/m 11,3 C 16,8 C 0,0 km/h (0 Bft)
10/08/2012 02:50 16,5 C 71 % 1021,4 hPa 0,0 mm 0,0 km/h (0 Bft) NE 45 0 min 0 W/m 11,2 C 16,5 C 0,0 km/h (0 Bft)
10/08/2012 03:02 16,3 C 72 % 1021,4 hPa 0,0 mm 0,0 km/h (0 Bft) NE 45 0 min 0 W/m 11,2 C 16,3 C 0,0 km/h (0 Bft)
10/08/2012 03:10 16,1 C 73 % 1021,4 hPa 0,0 mm 0,0 km/h (0 Bft) NE 45 0 min 0 W/m 11,3 C 16,1 C 0,0 km/h (0 Bft)
10/08/2012 03:20 16,0 C 74 % 1021,4 hPa 0,0 mm 0,0 km/h (0 Bft) NE 45 0 min 0 W/m 11,4 C 16,0 C 0,0 km/h (0 Bft)
10/08/2012 03:30 15,9 C 74 % 1021,5 hPa 0,0 mm 0,0 km/h (0 Bft) E-NE 67 0 min 0 W/m 11,3 C 15,9 C 0,0 km/h (0 Bft)
10/08/2012 03:40 15,9 C 75 % 1021,5 hPa 0,0 mm 0,0 km/h (0 Bft) NE 45 0 min 0 W/m 11,5 C 15,9 C 0,0 km/h (0 Bft)
10/08/2012 03:50 15,8 C 75 % 1021,4 hPa 0,0 mm 0,0 km/h (0 Bft) NE 45 0 min 0 W/m 11,4 C 15,8 C 0,0 km/h (0 Bft)
10/08/2012 04:00 15,6 C 76 % 1021,4 hPa 0,0 mm 0,0 km/h (0 Bft) NE 45 0 min 0 W/m 11,4 C 15,6 C 0,0 km/h (0 Bft)
10/08/2012 04:10 15,4 C 76 % 1021,2 hPa 0,0 mm 0,0 km/h (0 Bft) N 360 0 min 0 W/m 11,2 C 15,4 C 0,0 km/h (0 Bft)
10/08/2012 04:20 15,1 C 76 % 1021,2 hPa 0,0 mm 0,0 km/h (0 Bft) N 360 0 min 0 W/m 10,9 C 15,1 C 0,0 km/h (0 Bft)
10/08/2012 04:30 14,9 C 76 % 1021,2 hPa 0,0 mm 0,0 km/h (0 Bft) N 360 0 min 0 W/m 10,7 C 14,9 C 0,0 km/h (0 Bft)
10/08/2012 04:40 14,6 C 77 % 1021,2 hPa 0,0 mm 0,0 km/h (0 Bft) N 360 0 min 0 W/m 10,6 C 14,6 C 0,0 km/h (0 Bft)
10/08/2012 04:50 14,4 C 78 % 1021,1 hPa 0,0 mm 0,0 km/h (0 Bft) E-NE 67 0 min 0 W/m 10,6 C 14,4 C 0,0 km/h (0 Bft)
10/08/2012 05:00 14,2 C 79 % 1021,1 hPa 0,0 mm 0,0 km/h (0 Bft) E-NE 67 0 min 0 W/m 10,6 C 14,2 C 0,0 km/h (0 Bft)
10/08/2012 05:10 14,1 C 79 % 1021,2 hPa 0,0 mm 0,0 km/h (0 Bft) NE 45 0 min 0 W/m 10,5 C 14,1 C 0,0 km/h (0 Bft)
10/08/2012 05:20 13,9 C 80 % 1021,1 hPa 0,0 mm 0,0 km/h (0 Bft) N-NE 22 0 min 0 W/m 10,5 C 13,9 C 0,0 km/h (0 Bft)
10/08/2012 05:30 13,9 C 81 % 1021,1 hPa 0,0 mm 0,0 km/h (0 Bft) N-NO 337 0 min 0 W/m 10,7 C 13,9 C 0,0 km/h (0 Bft)
10/08/2012 05:40 13,8 C 81 % 1021,1 hPa 0,0 mm 0,0 km/h (0 Bft) N-NO 337 0 min 0 W/m 10,6 C 13,8 C 0,0 km/h (0 Bft)
10/08/2012 05:50 13,8 C 81 % 1021,1 hPa 0,0 mm 0,0 km/h (0 Bft) N-NO 337 0 min 0 W/m 10,6 C 13,8 C 0,0 km/h (0 Bft)
10/08/2012 06:00 13,6 C 81 % 1021,2 hPa 0,0 mm 0,0 km/h (0 Bft) N 360 0 min 0 W/m 10,4 C 13,6 C 0,0 km/h (0 Bft)
10/08/2012 06:10 13,6 C 82 % 1021,1 hPa 0,0 mm 0,0 km/h (0 Bft) N-NE 22 0 min 0 W/m 10,6 C 13,6 C 0,0 km/h (0 Bft)
10/08/2012 06:20 13,4 C 82 % 1021,1 hPa 0,0 mm 0,0 km/h (0 Bft) N-NE 22 0 min 0 W/m 10,4 C 13,4 C 0,0 km/h (0 Bft)
10/08/2012 06:30 13,3 C 82 % 1021,1 hPa 0,0 mm 0,0 km/h (0 Bft) N-NE 22 0 min 0 W/m 10,3 C 13,3 C 0,0 km/h (0 Bft)
10/08/2012 06:40 13,2 C 83 % 1021,2 hPa 0,0 mm 0,0 km/h (0 Bft) N 360 0 min 0 W/m 10,4 C 13,2 C 0,0 km/h (0 Bft)
10/08/2012 06:50 13,1 C 83 % 1021,1 hPa 0,0 mm 0,0 km/h (0 Bft) N 360 0 min 0 W/m 10,3 C 13,1 C 0,0 km/h (0 Bft)
10/08/2012 07:00 12,9 C 84 % 1021,2 hPa 0,0 mm 0,0 km/h (0 Bft) N 360 0 min 0 W/m 10,3 C 12,9 C 0,0 km/h (0 Bft)
10/08/2012 07:10 12,8 C 84 % 1021,2 hPa 0,0 mm 0,0 km/h (0 Bft) N 360 0 min 0 W/m 10,2 C 12,8 C 0,0 km/h (0 Bft)
10/08/2012 07:20 12,8 C 85 % 1021,2 hPa 0,0 mm 0,0 km/h (0 Bft) N 360 0 min 0 W/m 10,3 C 12,8 C 0,0 km/h (0 Bft)
10/08/2012 07:30 12,8 C 85 % 1021,3 hPa 0,0 mm 0,0 km/h (0 Bft) N 360 0 min 0 W/m 10,3 C 12,8 C 0,0 km/h (0 Bft)
10/08/2012 07:40 12,8 C 85 % 1021,3 hPa 0,0 mm 0,0 km/h (0 Bft) N 360 0 min 0 W/m 10,3 C 12,8 C 0,0 km/h (0 Bft)
10/08/2012 07:50 12,9 C 86 % 1021,3 hPa 0,0 mm 0,0 km/h (0 Bft) N 360 0 min 0 W/m 10,6 C 12,9 C 0,0 km/h (0 Bft)
10/08/2012 08:00 13,2 C 86 % 1021,3 hPa 0,0 mm 0,0 km/h (0 Bft) N 360 0 min 0 W/m 10,9 C 13,2 C 0,0 km/h (0 Bft)
10/08/2012 08:10 13,5 C 86 % 1021,5 hPa 0,0 mm 0,0 km/h (0 Bft) N 360 0 min 0 W/m 11,2 C 13,5 C 0,0 km/h (0 Bft)
10/08/2012 08:20 13,8 C 87 % 1021,3 hPa 0,0 mm 0,0 km/h (0 Bft) N 360 0 min 0 W/m 11,7 C 13,8 C 0,0 km/h (0 Bft)
10/08/2012 08:30 14,2 C 87 % 1021,4 hPa 0,0 mm 0,0 km/h (0 Bft) N 360 0 min 0 W/m 12,1 C 14,2 C 0,0 km/h (0 Bft)
10/08/2012 08:40 14,8 C 88 % 1021,5 hPa 0,0 mm 0,0 km/h (0 Bft) N 360 0 min 0 W/m 12,8 C 14,8 C 0,0 km/h (0 Bft)
10/08/2012 08:50 15,2 C 87 % 1021,5 hPa 0,0 mm 0,0 km/h (0 Bft) N 360 0 min 0 W/m 13,0 C 15,2 C 0,0 km/h (0 Bft)
10/08/2012 09:00 15,6 C 87 % 1021,5 hPa 0,0 mm 0,0 km/h (0 Bft) N 360 0 min 0 W/m 13,4 C 15,6 C 0,0 km/h (0 Bft)
10/08/2012 09:10 16,2 C 86 % 1021,6 hPa 0,0 mm 0,4 km/h (0 Bft) N 360 0 min 0 W/m 13,9 C 16,2 C 3,6 km/h (1 Bft)
10/08/2012 09:20 16,9 C 86 % 1021,8 hPa 0,0 mm 0,0 km/h (0 Bft) SE 135 0 min 0 W/m 14,5 C 16,9 C 0,0 km/h (0 Bft)
10/08/2012 09:30 17,8 C 84 % 1021,8 hPa 0,0 mm 0,0 km/h (0 Bft) E-NE 67 0 min 0 W/m 15,1 C 17,8 C 0,0 km/h (0 Bft)
10/08/2012 09:40 18,8 C 83 % 1021,9 hPa 0,0 mm 0,0 km/h (0 Bft) E-NE 67 0 min 0 W/m 15,8 C 18,8 C 0,0 km/h (0 Bft)
10/08/2012 09:50 20,1 C 80 % 1021,9 hPa 0,0 mm 0,0 km/h (0 Bft) N 360 0 min 0 W/m 16,5 C 20,1 C 0,0 km/h (0 Bft)
10/08/2012 10:00 21,5 C 76 % 1021,9 hPa 0,0 mm 1,4 km/h (1 Bft) E-NE 67 0 min 0 W/m 17,1 C 21,5 C 4,0 km/h (1 Bft)
10/08/2012 10:10 22,9 C 72 % 1021,9 hPa 0,0 mm 2,9 km/h (1 Bft) NE 45 0 min 0 W/m 17,6 C 22,9 C 2,9 km/h (1 Bft)
10/08/2012 10:20 24,1 C 67 % 1022,0 hPa 0,0 mm 2,2 km/h (1 Bft) E-NE 67 0 min 0 W/m 17,6 C 24,1 C 3,6 km/h (1 Bft)
10/08/2012 10:30 25,3 C 64 % 1021,9 hPa 0,0 mm 3,6 km/h (1 Bft) N-NE 22 0 min 0 W/m 18,0 C 25,3 C 4,0 km/h (1 Bft)
10/08/2012 10:40 26,3 C 59 % 1021,9 hPa 0,0 mm 4,7 km/h (1 Bft) E-NE 67 0 min 0 W/m 17,6 C 26,3 C 8,6 km/h (2 Bft)
10/08/2012 10:50 27,1 C 55 % 1021,9 hPa 0,0 mm 7,6 km/h (2 Bft) E 90 0 min 0 W/m 17,3 C 27,1 C 14,0 km/h (3 Bft)
10/08/2012 11:00 27,6 C 52 % 1022,0 hPa 0,0 mm 5,4 km/h (2 Bft) E-NE 67 0 min 0 W/m 16,8 C 27,6 C 8,6 km/h (2 Bft)
10/08/2012 11:10 28,0 C 51 % 1022,0 hPa 0,0 mm 7,6 km/h (2 Bft) E 90 0 min 0 W/m 16,9 C 28,0 C 7,6 km/h (2 Bft)
10/08/2012 11:20 28,5 C 50 % 1022,1 hPa 0,0 mm 1,1 km/h (1 Bft) E 90 0 min 0 W/m 17,0 C 28,5 C 7,2 km/h (2 Bft)
10/08/2012 11:30 28,9 C 48 % 1022,0 hPa 0,0 mm 9,4 km/h (2 Bft) SE 135 0 min 0 W/m 16,8 C 28,9 C 15,1 km/h (3 Bft)
10/08/2012 11:40 29,1 C 47 % 1021,9 hPa 0,0 mm 9,7 km/h (2 Bft) N 360 0 min 0 W/m 16,6 C 29,1 C 9,7 km/h (2 Bft)
10/08/2012 11:50 29,2 C 47 % 1021,9 hPa 0,0 mm 5,4 km/h (2 Bft) E-NE 67 0 min 0 W/m 16,7 C 29,2 C 14,8 km/h (3 Bft)
10/08/2012 12:00 29,4 C 45 % 1021,8 hPa 0,0 mm 10,1 km/h (2 Bft) NE 45 0 min 0 W/m 16,2 C 29,4 C 13,7 km/h (3 Bft)
10/08/2012 12:10 29,5 C 46 % 1021,7 hPa 0,0 mm 4,7 km/h (1 Bft) N-NO 337 0 min 0 W/m 16,6 C 29,5 C 4,7 km/h (1 Bft)
10/08/2012 12:20 29,8 C 45 % 1021,7 hPa 0,0 mm 3,2 km/h (1 Bft) N-NE 22 0 min 0 W/m 16,6 C 29,8 C 4,0 km/h (1 Bft)
10/08/2012 12:30 29,9 C 45 % 1021,7 hPa 0,0 mm 8,3 km/h (2 Bft) E-NE 67 0 min 0 W/m 16,7 C 29,9 C 14,4 km/h (3 Bft)
10/08/2012 12:40 30,1 C 45 % 1021,5 hPa 0,0 mm 9,7 km/h (2 Bft) N 360 0 min 0 W/m 16,8 C 30,1 C 20,5 km/h (4 Bft)
10/08/2012 12:50 30,1 C 45 % 1021,6 hPa 0,0 mm 9,7 km/h (2 Bft) N 360 0 min 0 W/m 16,8 C 30,1 C 9,7 km/h (2 Bft)
10/08/2012 13:00 30,2 C 43 % 1021,6 hPa 0,0 mm 9,0 km/h (2 Bft) N-NE 22 0 min 0 W/m 16,2 C 30,2 C 13,0 km/h (3 Bft)
10/08/2012 13:10 30,2 C 45 % 1021,6 hPa 0,0 mm 5,8 km/h (2 Bft) NE 45 0 min 0 W/m 16,9 C 30,2 C 5,8 km/h (2 Bft)
10/08/2012 13:20 30,4 C 43 % 1021,6 hPa 0,0 mm 0,7 km/h (0 Bft) E-NE 67 0 min 0 W/m 16,4 C 30,4 C 3,6 km/h (1 Bft)
10/08/2012 13:30 30,8 C 44 % 1021,4 hPa 0,0 mm 6,5 km/h (2 Bft) NE 45 0 min 0 W/m 17,1 C 30,8 C 7,9 km/h (2 Bft)
10/08/2012 13:40 31,2 C 42 % 1021,3 hPa 0,0 mm 5,4 km/h (2 Bft) N-NE 22 0 min 0 W/m 16,7 C 31,2 C 18,7 km/h (3 Bft)
10/08/2012 13:50 31,4 C 43 % 1021,2 hPa 0,0 mm 7,9 km/h (2 Bft) E-NE 67 0 min 0 W/m 17,3 C 31,4 C 11,9 km/h (2 Bft)
10/08/2012 14:00 31,6 C 42 % 1021,0 hPa 0,0 mm 5,8 km/h (2 Bft) E 90 0 min 0 W/m 17,1 C 31,6 C 10,4 km/h (2 Bft)
10/08/2012 14:10 31,8 C 41 % 1021,1 hPa 0,0 mm 4,0 km/h (1 Bft) SE 135 0 min 0 W/m 16,9 C 31,8 C 10,1 km/h (2 Bft)
10/08/2012 14:20 31,8 C 41 % 1020,9 hPa 0,0 mm 6,8 km/h (2 Bft) N 360 0 min 0 W/m 16,9 C 31,8 C 8,6 km/h (2 Bft)
10/08/2012 14:30 31,8 C 41 % 1020,8 hPa 0,0 mm 8,3 km/h (2 Bft) N-NE 22 0 min 0 W/m 16,9 C 31,8 C 9,7 km/h (2 Bft)
10/08/2012 14:40 31,9 C 40 % 1020,8 hPa 0,0 mm 10,1 km/h (2 Bft) NE 45 0 min 0 W/m 16,6 C 31,9 C 15,8 km/h (3 Bft)
10/08/2012 14:50 32,0 C 39 % 1020,7 hPa 0,0 mm 7,6 km/h (2 Bft) N-NE 22 0 min 0 W/m 16,3 C 32,0 C 11,2 km/h (2 Bft)
10/08/2012 15:00 32,2 C 39 % 1020,6 hPa 0,0 mm 5,0 km/h (1 Bft) NE 45 0 min 0 W/m 16,5 C 32,2 C 9,4 km/h (2 Bft)
10/08/2012 15:10 32,2 C 38 % 1020,7 hPa 0,0 mm 8,6 km/h (2 Bft) NE 45 0 min 0 W/m 16,0 C 32,2 C 8,6 km/h (2 Bft)
10/08/2012 15:20 32,2 C 38 % 1020,7 hPa 0,0 mm 6,8 km/h (2 Bft) E-NE 67 0 min 0 W/m 16,0 C 32,2 C 11,2 km/h (2 Bft)
10/08/2012 15:30 32,2 C 37 % 1020,6 hPa 0,0 mm 6,1 km/h (2 Bft) NE 45 0 min 0 W/m 15,6 C 32,2 C 9,4 km/h (2 Bft)
10/08/2012 15:40 32,3 C 39 % 1020,4 hPa 0,0 mm 6,1 km/h (2 Bft) E 90 0 min 0 W/m 16,5 C 32,3 C 12,2 km/h (2 Bft)
10/08/2012 15:50 32,4 C 37 % 1020,4 hPa 0,0 mm 5,8 km/h (2 Bft) E-SE 112 0 min 0 W/m 15,8 C 32,4 C 7,9 km/h (2 Bft)
10/08/2012 16:00 32,4 C 39 % 1020,3 hPa 0,0 mm 6,1 km/h (2 Bft) N 360 0 min 0 W/m 16,6 C 32,4 C 10,1 km/h (2 Bft)
10/08/2012 16:10 32,4 C 39 % 1020,3 hPa 0,0 mm 7,6 km/h (2 Bft) N 360 0 min 0 W/m 16,6 C 32,4 C 10,1 km/h (2 Bft)
10/08/2012 16:20 32,3 C 39 % 1020,3 hPa 0,0 mm 6,1 km/h (2 Bft) N-NE 22 0 min 0 W/m 16,5 C 32,3 C 6,1 km/h (2 Bft)
10/08/2012 16:30 32,3 C 39 % 1020,2 hPa 0,0 mm 5,4 km/h (2 Bft) NE 45 0 min 0 W/m 16,5 C 32,3 C 8,3 km/h (2 Bft)
10/08/2012 16:40 32,3 C 39 % 1020,2 hPa 0,0 mm 4,3 km/h (1 Bft) N-NE 22 0 min 0 W/m 16,5 C 32,3 C 7,9 km/h (2 Bft)
10/08/2012 16:50 32,3 C 39 % 1020,0 hPa 0,0 mm 7,6 km/h (2 Bft) NE 45 0 min 0 W/m 16,5 C 32,3 C 14,0 km/h (3 Bft)
10/08/2012 17:00 32,3 C 37 % 1020,0 hPa 0,0 mm 7,6 km/h (2 Bft) NE 45 0 min 0 W/m 15,7 C 32,3 C 7,6 km/h (2 Bft)
10/08/2012 17:10 32,3 C 38 % 1019,8 hPa 0,0 mm 2,9 km/h (1 Bft) N-NE 22 0 min 0 W/m 16,1 C 32,3 C 4,3 km/h (1 Bft)
10/08/2012 17:20 32,3 C 37 % 1019,7 hPa 0,0 mm 8,3 km/h (2 Bft) NE 45 0 min 0 W/m 15,7 C 32,3 C 8,3 km/h (2 Bft)
10/08/2012 17:30 32,2 C 37 % 1019,6 hPa 0,0 mm 6,8 km/h (2 Bft) E 90 0 min 0 W/m 15,6 C 32,2 C 11,9 km/h (2 Bft)
10/08/2012 17:40 32,1 C 37 % 1019,6 hPa 0,0 mm 7,2 km/h (2 Bft) NE 45 0 min 0 W/m 15,5 C 32,1 C 8,3 km/h (2 Bft)
10/08/2012 17:50 32,1 C 38 % 1019,6 hPa 0,0 mm 3,6 km/h (1 Bft) E-NE 67 0 min 0 W/m 16,0 C 32,1 C 4,0 km/h (1 Bft)
10/08/2012 18:00 32,1 C 37 % 1019,5 hPa 0,0 mm 7,6 km/h (2 Bft) N-NE 22 0 min 0 W/m 15,5 C 32,1 C 8,3 km/h (2 Bft)
10/08/2012 18:10 32,2 C 36 % 1019,5 hPa 0,0 mm 8,6 km/h (2 Bft) N-NE 22 0 min 0 W/m 15,2 C 32,2 C 13,0 km/h (3 Bft)
10/08/2012 18:20 32,2 C 37 % 1019,5 hPa 0,0 mm 8,3 km/h (2 Bft) N 360 0 min 0 W/m 15,6 C 32,2 C 13,0 km/h (3 Bft)
10/08/2012 18:30 32,2 C 37 % 1019,5 hPa 0,0 mm 6,1 km/h (2 Bft) N 360 0 min 0 W/m 15,6 C 32,2 C 7,6 km/h (2 Bft)
10/08/2012 18:40 32,1 C 37 % 1019,4 hPa 0,0 mm 6,5 km/h (2 Bft) N-NE 22 0 min 0 W/m 15,5 C 32,1 C 12,6 km/h (3 Bft)
10/08/2012 18:50 32,1 C 37 % 1019,4 hPa 0,0 mm 2,9 km/h (1 Bft) NE 45 0 min 0 W/m 15,5 C 32,1 C 3,6 km/h (1 Bft)
10/08/2012 19:00 32,1 C 37 % 1019,3 hPa 0,0 mm 2,2 km/h (1 Bft) N 360 0 min 0 W/m 15,5 C 32,1 C 4,3 km/h (1 Bft)
10/08/2012 19:10 31,9 C 38 % 1019,3 hPa 0,0 mm 6,8 km/h (2 Bft) N-NE 22 0 min 0 W/m 15,8 C 31,9 C 10,1 km/h (2 Bft)
10/08/2012 19:20 31,8 C 38 % 1019,3 hPa 0,0 mm 6,1 km/h (2 Bft) N 360 0 min 0 W/m 15,7 C 31,8 C 8,3 km/h (2 Bft)
10/08/2012 19:30 31,6 C 39 % 1019,3 hPa 0,0 mm 4,7 km/h (1 Bft) N-NE 22 0 min 0 W/m 15,9 C 31,6 C 9,0 km/h (2 Bft)
10/08/2012 19:40 31,3 C 39 % 1019,2 hPa 0,0 mm 4,0 km/h (1 Bft) NE 45 0 min 0 W/m 15,7 C 31,3 C 4,3 km/h (1 Bft)
10/08/2012 19:50 31,1 C 39 % 1019,3 hPa 0,0 mm 6,8 km/h (2 Bft) N-NE 22 0 min 0 W/m 15,5 C 31,1 C 9,4 km/h (2 Bft)
10/08/2012 20:00 30,8 C 39 % 1019,3 hPa 0,0 mm 6,5 km/h (2 Bft) NE 45 0 min 0 W/m 15,2 C 30,8 C 7,9 km/h (2 Bft)
10/08/2012 20:10 30,3 C 40 % 1019,3 hPa 0,0 mm 3,2 km/h (1 Bft) E-NE 67 0 min 0 W/m 15,2 C 30,3 C 4,0 km/h (1 Bft)
10/08/2012 20:20 29,7 C 40 % 1019,2 hPa 0,0 mm 1,4 km/h (1 Bft) NE 45 0 min 0 W/m 14,6 C 29,7 C 4,0 km/h (1 Bft)
10/08/2012 20:30 28,9 C 42 % 1019,3 hPa 0,0 mm 1,4 km/h (1 Bft) N-NE 22 0 min 0 W/m 14,7 C 28,9 C 4,3 km/h (1 Bft)
10/08/2012 20:40 28,2 C 43 % 1019,2 hPa 0,0 mm 0,7 km/h (0 Bft) NE 45 0 min 0 W/m 14,4 C 28,2 C 3,6 km/h (1 Bft)
10/08/2012 20:50 27,3 C 45 % 1019,3 hPa 0,0 mm 0,0 km/h (0 Bft) NE 45 0 min 0 W/m 14,3 C 27,3 C 4,0 km/h (1 Bft)
10/08/2012 21:00 26,6 C 46 % 1019,5 hPa 0,0 mm 0,0 km/h (0 Bft) E-NE 67 0 min 0 W/m 14,0 C 26,6 C 0,0 km/h (0 Bft)
10/08/2012 21:10 26,0 C 47 % 1019,6 hPa 0,0 mm 0,0 km/h (0 Bft) E-NE 67 0 min 0 W/m 13,8 C 26,0 C 0,0 km/h (0 Bft)
10/08/2012 21:20 25,4 C 49 % 1019,7 hPa 0,0 mm 0,0 km/h (0 Bft) E-NE 67 0 min 0 W/m 13,9 C 25,4 C 0,0 km/h (0 Bft)
10/08/2012 21:30 24,7 C 50 % 1019,8 hPa 0,0 mm 0,0 km/h (0 Bft) E-NE 67 0 min 0 W/m 13,6 C 24,7 C 0,0 km/h (0 Bft)
10/08/2012 21:40 24,0 C 51 % 1019,8 hPa 0,0 mm 0,0 km/h (0 Bft) NE 45 0 min 0 W/m 13,2 C 24,0 C 0,0 km/h (0 Bft)
10/08/2012 21:50 23,4 C 53 % 1020,0 hPa 0,0 mm 0,0 km/h (0 Bft) NE 45 0 min 0 W/m 13,3 C 23,4 C 0,0 km/h (0 Bft)
10/08/2012 22:00 22,8 C 55 % 1020,1 hPa 0,0 mm 0,0 km/h (0 Bft) NE 45 0 min 0 W/m 13,3 C 22,8 C 0,0 km/h (0 Bft)
10/08/2012 22:10 22,3 C 56 % 1020,2 hPa 0,0 mm 0,0 km/h (0 Bft) NE 45 0 min 0 W/m 13,1 C 22,3 C 0,0 km/h (0 Bft)
10/08/2012 22:20 21,7 C 58 % 1020,3 hPa 0,0 mm 0,0 km/h (0 Bft) NE 45 0 min 0 W/m 13,1 C 21,7 C 0,0 km/h (0 Bft)
10/08/2012 22:30 21,2 C 59 % 1020,2 hPa 0,0 mm 0,0 km/h (0 Bft) NE 45 0 min 0 W/m 12,9 C 21,2 C 0,0 km/h (0 Bft)
10/08/2012 22:40 20,8 C 60 % 1020,2 hPa 0,0 mm 0,0 km/h (0 Bft) N 360 0 min 0 W/m 12,7 C 20,8 C 0,0 km/h (0 Bft)
10/08/2012 22:50 20,6 C 61 % 1020,1 hPa 0,0 mm 0,0 km/h (0 Bft) NE 45 0 min 0 W/m 12,8 C 20,6 C 0,0 km/h (0 Bft)
10/08/2012 23:00 20,3 C 63 % 1020,0 hPa 0,0 mm 0,0 km/h (0 Bft) E-NE 67 0 min 0 W/m 13,0 C 20,3 C 0,0 km/h (0 Bft)
10/08/2012 23:10 20,2 C 63 % 1020,1 hPa 0,0 mm 0,0 km/h (0 Bft) E 90 0 min 0 W/m 12,9 C 20,2 C 0,0 km/h (0 Bft)
10/08/2012 23:20 20,1 C 64 % 1020,1 hPa 0,0 mm 0,4 km/h (0 Bft) E-NE 67 0 min 0 W/m 13,1 C 20,1 C 2,9 km/h (1 Bft)
10/08/2012 23:30 20,1 C 64 % 1020,0 hPa 0,0 mm 1,1 km/h (1 Bft) E 90 0 min 0 W/m 13,1 C 20,1 C 4,0 km/h (1 Bft)
10/08/2012 23:40 20,0 C 64 % 1019,9 hPa 0,0 mm 0,0 km/h (0 Bft) E-NE 67 0 min 0 W/m 13,0 C 20,0 C 0,0 km/h (0 Bft)
10/08/2012 23:50 19,9 C 64 % 1019,8 hPa 0,0 mm 0,0 km/h (0 Bft) E-NE 67 0 min 0 W/m 12,9 C 19,9 C 0,0 km/h (0 Bft)
_ Min-Heure 07:40 18:10 20:40 - 23:50 - - - - 07:10 07:40 23:50
Minimum _ 12,8 C 36 % 1019,2 hPa - 0,0 km/h (0 Bft) - - - - 10,2 C 12,8 C 0,0 km/h (0 Bft)
_ Max-Heure 16:10 08:40 11:20 23:50 14:40 - - 23:50 23:50 10:30 16:10 12:40
Maximum _ 32,4 C 88 % 1022,1 hPa 0,0 mm 10,1 km/h
NE (2 Bft)
- - 0 min 0 W/m 18,0 C 32,4 C 20,5 km/h
N (4 Bft)
Moyenne _ 23,3 C 59 % 1020,8 hPa #0,0 mm 2,7 km/h (1 Bft) NE - #0 min. 0 W/m 13,9 C 23,3 C 4,2 km/h (1 Bft)
Saint Bonnet de Bellac- Haute Vienne - France